Time;durP1;ratioP1;P1;durP2;ratioP2;P2;SDS_P1;SDS_P2;PMS_P1;PMS_P2;Temp;Humidity;BMP_temperature;BMP_pressure;BME280_temperature;BME280_humidity;BME280_pressure;Samples;Min_cycle;Max_cycle;Signal;HPM_P1;HPM_P2
2022/08/30 00:01:51;;;;;;;7.97;5.72;;;;;;;;;;5111230;27;20410;-68
2022/08/30 00:04:39;;;;;;;8.30;5.30;;;;;;;;;;5111348;27;20445;-69
2022/08/30 00:08:27;;;;;;;10.30;6.20;;;;;;;;;;5110864;27;20396;-70
2022/08/30 00:10:53;;;;;;;9.55;5.75;;;;;;;;;;5111210;28;20098;-69
2022/08/30 00:13:20;;;;;;;7.85;4.97;;;;;;;;;;5111155;28;20030;-69
2022/08/30 00:15:47;;;;;;;8.23;4.85;;;;;;;;;;5110723;28;20034;-69
2022/08/30 00:18:40;;;;;;;8.55;5.40;;;;;;;;;;5111341;27;20384;-69
2022/08/30 00:22:57;;;;;;;10.13;5.97;;;;;;;;;;5111274;27;20410;-68
2022/08/30 00:27:21;;;;;;;8.70;5.47;;;;;;;;;;5111355;27;20393;-69
2022/08/30 00:32:11;;;;;;;11.13;5.72;;;;;;;;;;5111901;27;20404;-69
2022/08/30 00:39:00;;;;;;;10.15;5.93;;;;;;;;;;5104979;27;1441073;-69
2022/08/30 00:43:54;;;;;;;10.95;7.10;;;;;;;;;;5110806;27;20788;-69
2022/08/30 00:48:17;;;;;;;10.60;6.15;;;;;;;;;;5111891;27;20446;-69
2022/08/30 00:50:45;;;;;;;13.40;6.82;;;;;;;;;;5110826;28;20024;-69
2022/08/30 00:53:17;;;;;;;9.88;5.28;;;;;;;;;;5111092;28;20452;-68
2022/08/30 01:06:48;;;;;;;8.27;5.60;;;;;;;;;;5111657;27;20388;-69
2022/08/30 01:11:11;;;;;;;8.45;5.80;;;;;;;;;;5110908;27;20569;-69
2022/08/30 01:13:37;;;;;;;10.10;6.25;;;;;;;;;;5127016;28;20028;-69
2022/08/30 01:16:04;;;;;;;10.15;6.25;;;;;;;;;;5111081;28;20024;-69
2022/08/30 01:21:21;;;;;;;8.23;6.30;;;;;;;;;;5071017;28;20861;-69
2022/08/30 01:24:17;;;;;;;12.07;6.65;;;;;;;;;;5111381;27;20405;-68
2022/08/30 01:26:44;;;;;;;10.30;6.45;;;;;;;;;;5111204;28;20023;-70
2022/08/30 01:30:32;;;;;;;8.18;5.97;;;;;;;;;;5111692;27;20422;-69
2022/08/30 01:34:06;;;;;;;9.90;6.57;;;;;;;;;;5050896;28;20389;-68
2022/08/30 01:38:49;;;;;;;10.25;7.05;;;;;;;;;;5111228;27;20720;-69
2022/08/30 01:41:19;;;;;;;12.30;6.82;;;;;;;;;;5111210;28;20475;-69
2022/08/30 01:43:46;;;;;;;10.50;6.70;;;;;;;;;;5111209;28;20495;-68
2022/08/30 01:46:35;;;;;;;10.23;6.53;;;;;;;;;;5111015;27;20401;-68
2022/08/30 01:49:03;;;;;;;11.05;7.35;;;;;;;;;;5111488;28;20024;-68
2022/08/30 01:53:44;;;;;;;9.90;6.88;;;;;;;;;;5070483;28;20384;-68
2022/08/30 01:56:49;;;;;;;11.02;7.60;;;;;;;;;;5112012;27;20385;-69
2022/08/30 01:59:15;;;;;;;11.00;7.05;;;;;;;;;;5110825;28;20066;-69
2022/08/30 02:01:41;;;;;;;9.95;6.90;;;;;;;;;;5111208;28;20047;-69
2022/08/30 02:04:10;;;;;;;15.60;7.47;;;;;;;;;;5111156;28;20360;-68
2022/08/30 02:06:37;;;;;;;10.43;7.05;;;;;;;;;;5110580;28;20028;-69
2022/08/30 02:09:03;;;;;;;10.48;7.05;;;;;;;;;;5111232;28;20472;-69
2022/08/30 02:11:30;;;;;;;9.85;7.32;;;;;;;;;;5110998;28;20032;-69
2022/08/30 02:13:56;;;;;;;11.27;7.15;;;;;;;;;;5110534;28;20028;-69
2022/08/30 02:16:23;;;;;;;10.60;6.88;;;;;;;;;;5110848;28;20035;-69
2022/08/30 02:18:53;;;;;;;15.07;7.60;;;;;;;;;;5110769;28;20019;-69
2022/08/30 02:21:19;;;;;;;11.32;7.63;;;;;;;;;;5110831;28;20392;-69
2022/08/30 02:25:57;;;;;;;8.93;6.93;;;;;;;;;;5111266;27;20845;-69
2022/08/30 02:29:25;;;;;;;10.82;6.90;;;;;;;;;;5111640;27;20552;-68
2022/08/30 02:31:51;;;;;;;8.80;7.00;;;;;;;;;;5111184;28;20026;-68
2022/08/30 02:34:17;;;;;;;10.88;6.30;;;;;;;;;;5110689;28;20028;-68
2022/08/30 02:36:44;;;;;;;11.07;7.60;;;;;;;;;;5111107;28;20031;-68
2022/08/30 02:39:11;;;;;;;17.83;7.70;;;;;;;;;;5111315;28;20024;-69
2022/08/30 02:43:22;;;;;;;14.30;8.07;;;;;;;;;;5110831;27;20458;-69
2022/08/30 02:45:48;;;;;;;9.35;6.95;;;;;;;;;;5111155;28;20527;-69
2022/08/30 02:48:14;;;;;;;9.82;7.03;;;;;;;;;;5109384;28;20066;-69
2022/08/30 02:52:52;;;;;;;10.05;7.85;;;;;;;;;;5111417;27;20835;-69
2022/08/30 02:55:19;;;;;;;12.00;7.15;;;;;;;;;;5110779;28;20553;-69
2022/08/30 02:57:46;;;;;;;11.00;6.90;;;;;;;;;;5109846;28;20082;-69
2022/08/30 03:00:14;;;;;;;10.90;6.70;;;;;;;;;;5111097;28;20103;-69
2022/08/30 03:02:40;;;;;;;11.40;7.13;;;;;;;;;;5110693;28;20020;-69
2022/08/30 03:05:11;;;;;;;10.07;6.70;;;;;;;;;;5110968;28;20095;-69
2022/08/30 03:07:38;;;;;;;13.15;7.63;;;;;;;;;;5110971;28;20531;-69
2022/08/30 03:10:18;;;;;;;10.18;6.40;;;;;;;;;;5111196;27;20385;-69
2022/08/30 03:14:16;;;;;;;11.65;6.65;;;;;;;;;;5111167;27;20874;-69
2022/08/30 03:19:03;;;;;;;9.85;6.50;;;;;;;;;;5111110;27;20178;-69
2022/08/30 03:24:00;;;;;;;11.70;7.38;;;;;;;;;;5110998;27;20393;-69
2022/08/30 03:26:26;;;;;;;11.18;8.02;;;;;;;;;;5111134;28;20030;-69
2022/08/30 03:28:53;;;;;;;15.48;7.60;;;;;;;;;;5111111;28;20016;-69
2022/08/30 03:33:05;;;;;;;9.52;6.97;;;;;;;;;;5111973;27;20393;-69
2022/08/30 03:35:31;;;;;;;10.27;7.43;;;;;;;;;;5111179;28;20399;-69
2022/08/30 03:37:58;;;;;;;9.48;7.32;;;;;;;;;;5110755;28;20473;-69
2022/08/30 03:40:24;;;;;;;10.32;7.28;;;;;;;;;;5111345;28;20034;-69
2022/08/30 03:44:14;;;;;;;16.15;8.27;;;;;;;;;;5111377;27;20397;-70
2022/08/30 03:46:40;;;;;;;10.05;6.80;;;;;;;;;;5110832;28;20433;-69
2022/08/30 03:49:07;;;;;;;13.48;7.90;;;;;;;;;;5111119;28;20053;-70
2022/08/30 03:51:33;;;;;;;9.82;6.68;;;;;;;;;;5110716;28;20066;-69
2022/08/30 03:54:00;;;;;;;9.25;6.82;;;;;;;;;;5111554;28;20024;-69
2022/08/30 03:56:26;;;;;;;10.45;7.05;;;;;;;;;;5110988;28;20020;-71
2022/08/30 03:58:52;;;;;;;12.18;7.57;;;;;;;;;;5110796;28;20039;-69
2022/08/30 04:01:53;;;;;;;10.73;7.50;;;;;;;;;;5091035;27;20377;-69
2022/08/30 04:04:20;;;;;;;11.05;7.30;;;;;;;;;;5090995;28;20025;-69
2022/08/30 04:07:06;;;;;;;14.85;7.85;;;;;;;;;;5111124;27;20384;-69
2022/08/30 04:11:39;;;;;;;10.23;7.47;;;;;;;;;;5111441;27;20401;-69
2022/08/30 04:16:47;;;;;;;19.60;7.78;;;;;;;;;;5111499;27;20422;-69
2022/08/30 04:19:13;;;;;;;10.45;6.90;;;;;;;;;;5111215;28;20364;-69
2022/08/30 04:23:24;;;;;;;11.95;7.30;;;;;;;;;;5111306;27;20831;-70
2022/08/30 04:25:50;;;;;;;14.30;8.10;;;;;;;;;;5111410;28;20388;-69
2022/08/30 04:28:16;;;;;;;12.07;7.40;;;;;;;;;;5110712;28;20023;-69
2022/08/30 04:31:20;;;;;;;14.52;8.23;;;;;;;;;;5111663;27;20972;-69
2022/08/30 04:34:00;;;;;;;10.65;6.88;;;;;;;;;;5111358;27;20389;-70
2022/08/30 04:36:26;;;;;;;10.07;7.53;;;;;;;;;;5111436;28;20106;-70
2022/08/30 04:40:03;;;;;;;11.10;7.53;;;;;;;;;;5111770;27;20389;-69
2022/08/30 04:42:59;;;;;;;8.70;6.57;;;;;;;;;;5070375;28;20417;-69
2022/08/30 04:45:25;;;;;;;10.50;7.43;;;;;;;;;;5070613;28;20103;-69
2022/08/30 04:47:51;;;;;;;13.88;7.07;;;;;;;;;;5070233;28;20025;-69
2022/08/30 04:50:19;;;;;;;11.30;7.78;;;;;;;;;;5070498;28;20020;-69
2022/08/30 04:52:45;;;;;;;13.73;7.80;;;;;;;;;;5070690;28;20055;-69
2022/08/30 04:55:12;;;;;;;12.00;7.32;;;;;;;;;;5070023;28;20028;-69
2022/08/30 04:57:39;;;;;;;10.90;7.00;;;;;;;;;;5070358;28;20029;-69
2022/08/30 05:00:44;;;;;;;14.15;8.43;;;;;;;;;;5111908;27;20410;-69
2022/08/30 05:03:22;;;;;;;11.98;7.25;;;;;;;;;;5131505;27;20112;-70
2022/08/30 05:05:49;;;;;;;10.63;7.20;;;;;;;;;;5111168;28;20073;-70
2022/08/30 05:08:16;;;;;;;9.45;6.93;;;;;;;;;;5111207;28;20027;-71
2022/08/30 05:12:14;;;;;;;12.73;7.95;;;;;;;;;;5132051;27;20108;-69
2022/08/30 05:14:40;;;;;;;11.82;7.78;;;;;;;;;;5111122;28;20054;-69
2022/08/30 05:17:06;;;;;;;8.38;6.07;;;;;;;;;;5110632;28;20073;-69
2022/08/30 05:19:32;;;;;;;12.40;6.47;;;;;;;;;;5111002;28;20036;-70
2022/08/30 05:21:59;;;;;;;10.98;7.40;;;;;;;;;;5110922;28;20103;-69
2022/08/30 05:24:25;;;;;;;11.73;7.78;;;;;;;;;;5092344;28;20027;-69
2022/08/30 05:27:04;;;;;;;12.90;7.80;;;;;;;;;;5067713;28;20388;-70
2022/08/30 05:30:52;;;;;;;17.55;8.90;;;;;;;;;;5110279;27;20454;-78
2022/08/30 05:33:18;;;;;;;13.80;7.07;;;;;;;;;;5111240;28;20020;-75
2022/08/30 05:37:57;;;;;;;11.45;7.72;;;;;;;;;;5109931;27;20474;-74
2022/08/30 05:40:42;;;;;;;16.25;9.13;;;;;;;;;;5111019;27;20450;-75
2022/08/30 05:43:10;;;;;;;15.15;9.55;;;;;;;;;;5110948;28;20020;-74
2022/08/30 05:46:18;;;;;;;13.40;8.13;;;;;;;;;;5110465;27;20389;-73
2022/08/30 05:51:55;;;;;;;13.68;9.27;;;;;;;;;;5103488;27;20390;-72
2022/08/30 05:54:21;;;;;;;15.35;9.05;;;;;;;;;;5090610;28;20111;-71
2022/08/30 05:57:47;;;;;;;13.40;8.13;;;;;;;;;;5111229;27;20427;-72
2022/08/30 06:01:04;;;;;;;13.57;8.45;;;;;;;;;;5111611;27;20401;-72
2022/08/30 06:03:31;;;;;;;10.90;7.90;;;;;;;;;;5111005;28;20020;-72
2022/08/30 06:05:58;;;;;;;11.75;8.48;;;;;;;;;;5110531;28;20019;-70
2022/08/30 06:08:24;;;;;;;11.25;7.35;;;;;;;;;;5110872;28;20391;-71
2022/08/30 06:10:50;;;;;;;11.30;8.05;;;;;;;;;;5110878;28;20160;-72
2022/08/30 06:13:51;;;;;;;10.90;7.82;;;;;;;;;;5110956;27;20461;-69
2022/08/30 06:16:20;;;;;;;12.13;8.05;;;;;;;;;;5110794;28;20019;-73
2022/08/30 06:18:46;;;;;;;10.68;8.00;;;;;;;;;;5110672;28;20102;-72
2022/08/30 06:24:22;;;;;;;12.65;7.97;;;;;;;;;;5107235;27;20431;-72
2022/08/30 06:26:48;;;;;;;10.82;7.90;;;;;;;;;;5108431;28;20096;-72
2022/08/30 06:31:07;;;;;;;10.43;7.65;;;;;;;;;;5110658;27;20598;-73
2022/08/30 06:33:33;;;;;;;14.23;8.77;;;;;;;;;;5108884;28;20038;-73
2022/08/30 06:36:06;;;;;;;9.95;7.80;;;;;;;;;;5110759;28;20487;-73
2022/08/30 06:38:33;;;;;;;11.23;7.40;;;;;;;;;;5108894;28;20024;-74
2022/08/30 06:44:11;;;;;;;17.27;8.38;;;;;;;;;;5108596;27;20416;-73
2022/08/30 06:48:15;;;;;;;33.28;9.57;;;;;;;;;;5108369;27;20450;-74
2022/08/30 06:50:42;;;;;;;20.98;9.48;;;;;;;;;;5108764;28;20541;-73
2022/08/30 06:53:21;;;;;;;25.83;8.02;;;;;;;;;;5108536;27;20892;-69
2022/08/30 06:55:54;;;;;;;18.75;9.07;;;;;;;;;;5108953;28;20379;-74
2022/08/30 07:00:29;;;;;;;51.92;12.32;;;;;;;;;;5110617;27;20457;-73
2022/08/30 07:02:56;;;;;;;29.55;8.93;;;;;;;;;;5110165;28;20035;-74
2022/08/30 07:05:23;;;;;;;100.00;18.65;;;;;;;;;;5110357;28;20061;-73
2022/08/30 07:08:49;;;;;;;37.40;10.52;;;;;;;;;;5098692;27;20446;-73
2022/08/30 07:11:24;;;;;;;133.85;19.60;;;;;;;;;;5089686;28;20024;-73
2022/08/30 07:13:50;;;;;;;133.27;20.58;;;;;;;;;;5089907;28;20432;-75
2022/08/30 07:21:15;;;;;;;74.07;15.90;;;;;;;;;;5090199;28;20089;-73
2022/08/30 07:23:42;;;;;;;93.90;13.05;;;;;;;;;;5090015;28;20392;-75
2022/08/30 07:26:09;;;;;;;290.90;42.25;;;;;;;;;;5090261;28;20433;-73
2022/08/30 07:30:43;;;;;;;111.60;18.48;;;;;;;;;;5101763;27;20463;-72
2022/08/30 07:35:11;;;;;;;50.97;10.30;;;;;;;;;;5110957;27;20117;-74
2022/08/30 07:37:37;;;;;;;23.50;8.23;;;;;;;;;;5090267;28;20024;-76
2022/08/30 07:40:04;;;;;;;50.25;9.07;;;;;;;;;;5090499;28;20024;-75
2022/08/30 07:44:58;;;;;;;11.60;6.05;;;;;;;;;;5069806;28;20481;-78
2022/08/30 07:47:25;;;;;;;13.98;5.95;;;;;;;;;;5064707;28;20028;-74
2022/08/30 07:49:51;;;;;;;18.75;7.80;;;;;;;;;;5051498;28;20025;-76
2022/08/30 07:52:17;;;;;;;27.08;7.80;;;;;;;;;;5059817;28;20464;-73
2022/08/30 07:56:28;;;;;;;17.13;7.47;;;;;;;;;;5111031;27;20423;-72
2022/08/30 07:58:54;;;;;;;18.60;7.40;;;;;;;;;;5106401;28;20031;-71
2022/08/30 08:03:14;;;;;;;37.70;9.77;;;;;;;;;;5108936;27;20421;-70
2022/08/30 08:05:41;;;;;;;22.63;6.05;;;;;;;;;;5108287;28;20479;-70
2022/08/30 08:08:08;;;;;;;24.50;7.32;;;;;;;;;;5104580;28;20476;-74
2022/08/30 08:10:35;;;;;;;49.00;10.18;;;;;;;;;;5090418;28;20044;-74
2022/08/30 08:13:42;;;;;;;18.75;6.18;;;;;;;;;;5110087;27;20127;-73
2022/08/30 08:16:08;;;;;;;16.10;6.40;;;;;;;;;;5110071;28;20081;-75
2022/08/30 08:18:34;;;;;;;15.57;6.18;;;;;;;;;;5109312;28;20020;-73
2022/08/30 08:21:01;;;;;;;14.98;6.53;;;;;;;;;;5108948;28;20092;-75
2022/08/30 08:23:28;;;;;;;9.13;5.70;;;;;;;;;;5109480;28;20048;-76
2022/08/30 08:25:54;;;;;;;11.07;6.32;;;;;;;;;;5108481;28;20069;-79
2022/08/30 08:28:20;;;;;;;8.85;5.40;;;;;;;;;;5109929;28;20490;-79
2022/08/30 08:30:47;;;;;;;8.02;5.10;;;;;;;;;;5108701;28;20020;-78
2022/08/30 08:33:13;;;;;;;11.50;4.95;;;;;;;;;;5107926;28;20042;-77
2022/08/30 08:35:39;;;;;;;8.40;5.40;;;;;;;;;;5107473;28;20024;-76
2022/08/30 08:38:05;;;;;;;15.48;6.13;;;;;;;;;;5110036;28;20528;-75
2022/08/30 08:40:37;;;;;;;14.05;5.13;;;;;;;;;;5108552;28;20383;-74
2022/08/30 08:43:15;;;;;;;28.63;6.20;;;;;;;;;;5110042;28;20031;-73
2022/08/30 08:45:50;;;;;;;8.95;4.85;;;;;;;;;;5110462;28;20044;-77
2022/08/30 08:48:29;;;;;;;10.73;4.65;;;;;;;;;;5102112;28;20062;-77
2022/08/30 08:55:13;;;;;;;16.95;4.97;;;;;;;;;;5109804;28;20495;-75
2022/08/30 08:57:40;;;;;;;12.05;6.00;;;;;;;;;;5089646;28;20031;-77
2022/08/30 09:00:08;;;;;;;7.25;4.53;;;;;;;;;;5089082;28;20357;-76
2022/08/30 09:02:45;;;;;;;9.68;5.10;;;;;;;;;;5086475;28;20020;-77
2022/08/30 09:07:36;;;;;;;14.38;5.18;;;;;;;;;;5109017;27;20373;-74
2022/08/30 09:10:02;;;;;;;9.73;4.43;;;;;;;;;;5100219;28;20043;-73
2022/08/30 09:12:28;;;;;;;16.23;5.28;;;;;;;;;;5108496;28;20027;-74
2022/08/30 09:15:01;;;;;;;21.95;6.68;;;;;;;;;;5108673;28;20074;-74
2022/08/30 09:17:27;;;;;;;13.93;5.75;;;;;;;;;;5100121;28;20020;-75
2022/08/30 09:20:49;;;;;;;8.80;4.22;;;;;;;;;;5096360;27;20432;-75
2022/08/30 09:23:15;;;;;;;12.48;4.63;;;;;;;;;;5090034;28;20038;-72
2022/08/30 09:25:51;;;;;;;9.10;5.22;;;;;;;;;;5087498;28;20353;-73
2022/08/30 09:28:21;;;;;;;9.02;4.88;;;;;;;;;;5082246;28;20032;-74
2022/08/30 09:30:59;;;;;;;7.53;4.03;;;;;;;;;;5088043;28;20434;-75
2022/08/30 09:33:25;;;;;;;11.35;5.65;;;;;;;;;;5086439;28;20251;-76
2022/08/30 09:35:51;;;;;;;26.85;7.15;;;;;;;;;;5087474;28;20410;-76
2022/08/30 09:38:20;;;;;;;8.85;4.80;;;;;;;;;;5087286;28;20024;-78
2022/08/30 09:40:48;;;;;;;26.05;6.47;;;;;;;;;;5086724;28;20031;-77
2022/08/30 09:43:17;;;;;;;23.55;7.75;;;;;;;;;;5085859;28;20086;-76
2022/08/30 09:45:48;;;;;;;36.17;7.00;;;;;;;;;;5086245;28;20021;-75
2022/08/30 09:48:42;;;;;;;74.03;10.77;;;;;;;;;;5087148;28;20104;-75
2022/08/30 09:51:14;;;;;;;22.45;6.65;;;;;;;;;;5086109;28;20085;-73
2022/08/30 09:53:43;;;;;;;24.90;5.43;;;;;;;;;;5103116;28;20489;-77
2022/08/30 09:56:14;;;;;;;21.75;7.13;;;;;;;;;;5089231;28;20717;-71
2022/08/30 09:58:49;;;;;;;42.13;7.20;;;;;;;;;;5089346;28;20074;-71
2022/08/30 10:01:25;;;;;;;67.88;10.85;;;;;;;;;;5087028;28;20369;-75
2022/08/30 10:04:01;;;;;;;20.55;5.40;;;;;;;;;;5088148;28;20063;-73
2022/08/30 10:06:33;;;;;;;18.17;6.40;;;;;;;;;;5087834;28;20178;-75
2022/08/30 10:09:02;;;;;;;9.20;4.90;;;;;;;;;;5088382;28;20547;-74
2022/08/30 10:11:32;;;;;;;22.50;6.45;;;;;;;;;;5088002;28;20055;-75
2022/08/30 10:14:04;;;;;;;14.75;5.55;;;;;;;;;;5089542;28;20036;-75
2022/08/30 10:16:30;;;;;;;;;;;;;;;;;;5103177;28;20028;-76
2022/08/30 10:18:59;;;;;;;10.10;4.13;;;;;;;;;;5086916;28;19969;-75
2022/08/30 10:21:34;;;;;;;8.10;4.45;;;;;;;;;;5088612;28;20025;-76
2022/08/30 10:24:05;;;;;;;29.55;8.30;;;;;;;;;;5087339;28;20020;-73
2022/08/30 10:26:40;;;;;;;22.65;7.18;;;;;;;;;;5085298;28;20062;-74
2022/08/30 10:29:09;;;;;;;8.98;4.45;;;;;;;;;;5085789;28;20023;-75
2022/08/30 10:31:51;;;;;;;14.45;4.78;;;;;;;;;;5075607;28;20036;-74
2022/08/30 10:34:25;;;;;;;23.35;5.50;;;;;;;;;;5072786;28;20453;-73
2022/08/30 10:36:54;;;;;;;10.48;4.50;;;;;;;;;;5073483;28;20466;-75
2022/08/30 10:39:23;;;;;;;14.35;4.90;;;;;;;;;;5072412;28;20263;-75
2022/08/30 10:41:50;;;;;;;9.00;4.60;;;;;;;;;;5087872;28;20028;-73
2022/08/30 10:44:25;;;;;;;9.55;3.80;;;;;;;;;;5073019;28;20040;-75
2022/08/30 10:46:59;;;;;;;17.35;4.55;;;;;;;;;;5073323;28;20020;-73
2022/08/30 10:49:28;;;;;;;10.70;4.28;;;;;;;;;;5089124;28;20017;-74
2022/08/30 10:52:00;;;;;;;8.10;3.53;;;;;;;;;;5073629;28;20103;-76
2022/08/30 10:54:27;;;;;;;;;;;;;;;;;;5074155;28;20041;-75
2022/08/30 10:56:54;;;;;;;6.85;3.15;;;;;;;;;;5073565;28;20442;-75
2022/08/30 10:59:20;;;;;;;8.60;4.70;;;;;;;;;;5072891;28;20472;-75
2022/08/30 11:01:58;;;;;;;15.65;5.20;;;;;;;;;;5073249;28;20125;-75
2022/08/30 11:04:31;;;;;;;18.58;6.03;;;;;;;;;;5083137;28;20028;-74
2022/08/30 11:07:16;;;;;;;15.05;5.05;;;;;;;;;;5092737;28;20066;-74
2022/08/30 11:09:42;;;;;;;21.80;6.20;;;;;;;;;;5084033;28;20032;-77
2022/08/30 11:12:21;;;;;;;44.42;6.93;;;;;;;;;;5074558;28;20025;-74
2022/08/30 11:14:47;;;;;;;8.35;4.00;;;;;;;;;;5074725;28;20516;-75
2022/08/30 11:17:26;;;;;;;27.05;6.32;;;;;;;;;;5074885;28;20126;-77
2022/08/30 11:19:53;;;;;;;10.23;4.15;;;;;;;;;;5076322;28;20048;-77
2022/08/30 11:22:26;;;;;;;29.88;5.78;;;;;;;;;;5076042;28;20063;-76
2022/08/30 11:25:01;;;;;;;13.25;4.50;;;;;;;;;;5074843;28;20025;-77
2022/08/30 11:27:39;;;;;;;11.95;4.45;;;;;;;;;;5074027;28;20536;-77
2022/08/30 11:30:24;;;;;;;13.50;4.53;;;;;;;;;;5073948;28;20021;-77
2022/08/30 11:33:01;;;;;;;6.95;4.05;;;;;;;;;;5072243;28;20373;-75
2022/08/30 11:35:48;;;;;;;12.05;5.07;;;;;;;;;;5071153;28;20035;-81
2022/08/30 11:38:27;;;;;;;7.32;3.42;;;;;;;;;;5050303;28;20025;-79
2022/08/30 11:40:54;;;;;;;9.88;4.30;;;;;;;;;;5051990;28;20029;-77
2022/08/30 11:43:35;;;;;;;8.52;4.05;;;;;;;;;;5050323;28;20434;-76
2022/08/30 11:46:13;;;;;;;12.57;5.13;;;;;;;;;;5053016;28;20485;-76
2022/08/30 11:48:50;;;;;;;8.50;4.07;;;;;;;;;;5051300;28;20040;-75
2022/08/30 11:51:23;;;;;;;6.63;3.63;;;;;;;;;;5051196;28;20539;-75
2022/08/30 11:53:49;;;;;;;23.10;5.90;;;;;;;;;;5051287;28;20021;-73
2022/08/30 11:56:15;;;;;;;11.13;4.13;;;;;;;;;;5046800;28;20037;-72
2022/08/30 11:58:47;;;;;;;17.77;4.38;;;;;;;;;;5052358;28;20139;-74
2022/08/30 12:01:19;;;;;;;11.50;5.70;;;;;;;;;;5053631;28;20036;-75
2022/08/30 12:03:53;;;;;;;10.80;4.95;;;;;;;;;;5053491;28;20033;-75
2022/08/30 12:06:37;;;;;;;9.82;5.07;;;;;;;;;;5068935;28;20032;-75
2022/08/30 12:09:03;;;;;;;7.85;3.97;;;;;;;;;;5060061;28;20053;-73
2022/08/30 12:11:33;;;;;;;7.22;3.65;;;;;;;;;;5071895;28;20089;-73
2022/08/30 12:14:00;;;;;;;8.32;4.32;;;;;;;;;;5073462;28;20031;-73
2022/08/30 12:18:26;;;;;;;15.27;5.32;;;;;;;;;;5062110;28;20024;-73
2022/08/30 12:19:25;;;;;;;7.93;3.53;;;;;;;;;;5070135;28;20045;-71
2022/08/30 12:21:59;;;;;;;7.10;4.28;;;;;;;;;;5072979;28;20036;-73
2022/08/30 12:24:27;;;;;;;9.18;4.78;;;;;;;;;;5071345;28;20028;-73
2022/08/30 12:26:53;;;;;;;10.40;4.50;;;;;;;;;;5071079;28;20041;-73
2022/08/30 12:29:19;;;;;;;8.90;3.78;;;;;;;;;;5087120;28;20036;-72
2022/08/30 12:31:46;;;;;;;19.73;6.57;;;;;;;;;;5071389;28;20009;-73
2022/08/30 12:34:29;;;;;;;16.60;4.85;;;;;;;;;;5070978;28;20035;-73
2022/08/30 12:37:06;;;;;;;10.88;4.28;;;;;;;;;;5071398;28;20028;-74
2022/08/30 12:39:37;;;;;;;9.75;4.00;;;;;;;;;;5071338;28;20032;-73
2022/08/30 12:42:23;;;;;;;9.10;4.38;;;;;;;;;;5072231;28;20028;-74
2022/08/30 12:44:54;;;;;;;9.48;4.75;;;;;;;;;;5088173;28;20024;-74
2022/08/30 12:47:31;;;;;;;9.80;4.50;;;;;;;;;;5072816;28;20032;-73
2022/08/30 12:49:57;;;;;;;7.28;3.70;;;;;;;;;;5073354;28;20081;-73
2022/08/30 12:52:30;;;;;;;13.27;4.80;;;;;;;;;;5072198;28;20031;-72
2022/08/30 12:55:06;;;;;;;6.47;3.85;;;;;;;;;;5072763;28;20411;-72
2022/08/30 12:57:43;;;;;;;6.32;3.75;;;;;;;;;;5073572;28;20017;-73
2022/08/30 13:00:10;;;;;;;9.57;3.90;;;;;;;;;;5073087;28;20125;-73
2022/08/30 13:02:54;;;;;;;8.52;3.90;;;;;;;;;;5072095;28;20031;-73
2022/08/30 13:05:35;;;;;;;13.82;3.78;;;;;;;;;;5073648;28;20038;-73
2022/08/30 13:08:13;;;;;;;8.90;3.70;;;;;;;;;;5071605;28;20028;-73
2022/08/30 13:10:51;;;;;;;8.60;4.00;;;;;;;;;;5073240;28;20033;-73
2022/08/30 13:13:28;;;;;;;7.20;3.70;;;;;;;;;;5073221;28;20069;-72
2022/08/30 13:15:54;;;;;;;8.68;3.75;;;;;;;;;;5072891;28;20024;-72
2022/08/30 13:18:31;;;;;;;5.93;3.17;;;;;;;;;;5073011;28;20503;-71
2022/08/30 13:21:15;;;;;;;6.03;3.42;;;;;;;;;;5073485;28;20511;-72
2022/08/30 13:23:41;;;;;;;8.93;3.65;;;;;;;;;;5073213;28;20392;-72
2022/08/30 13:26:08;;;;;;;8.95;3.78;;;;;;;;;;5073467;28;20025;-72
2022/08/30 13:28:48;;;;;;;7.22;3.38;;;;;;;;;;5073156;28;20031;-72
2022/08/30 13:31:14;;;;;;;8.70;4.13;;;;;;;;;;5073108;28;20028;-72
2022/08/30 13:33:40;;;;;;;13.82;4.25;;;;;;;;;;5073123;28;20035;-72
2022/08/30 13:36:07;;;;;;;9.80;4.00;;;;;;;;;;5072671;28;20021;-72
2022/08/30 13:38:33;;;;;;;6.47;3.63;;;;;;;;;;5072908;28;20032;-72
2022/08/30 13:40:59;;;;;;;8.40;4.00;;;;;;;;;;5072967;28;20048;-72
2022/08/30 13:43:25;;;;;;;9.13;3.50;;;;;;;;;;5071383;28;20084;-72
2022/08/30 13:45:51;;;;;;;8.18;3.95;;;;;;;;;;5072856;28;20587;-72
2022/08/30 13:48:17;;;;;;;6.18;3.63;;;;;;;;;;5071585;28;20428;-72
2022/08/30 13:50:44;;;;;;;9.55;4.13;;;;;;;;;;5072377;28;20021;-71
2022/08/30 13:53:10;;;;;;;6.97;4.20;;;;;;;;;;5073073;28;20021;-71
2022/08/30 13:55:36;;;;;;;14.00;5.07;;;;;;;;;;5071583;28;20031;-71
2022/08/30 13:58:03;;;;;;;9.23;4.65;;;;;;;;;;5072442;28;20094;-71
2022/08/30 14:00:29;;;;;;;9.60;4.80;;;;;;;;;;5072626;28;20029;-71
2022/08/30 14:02:55;;;;;;;7.93;4.60;;;;;;;;;;5073097;28;20385;-72
2022/08/30 14:05:23;;;;;;;7.18;4.13;;;;;;;;;;5072543;28;20024;-72
2022/08/30 14:07:49;;;;;;;11.75;4.82;;;;;;;;;;5076532;28;20020;-73
2022/08/30 14:10:17;;;;;;;8.60;3.97;;;;;;;;;;5075133;28;20024;-72
2022/08/30 14:12:43;;;;;;;11.38;5.45;;;;;;;;;;5076463;28;20326;-73
2022/08/30 14:15:10;;;;;;;15.15;5.93;;;;;;;;;;5076592;28;20020;-73
2022/08/30 14:17:36;;;;;;;8.98;5.32;;;;;;;;;;5076319;28;20048;-73
2022/08/30 14:20:02;;;;;;;17.67;6.53;;;;;;;;;;5076069;28;20047;-73
2022/08/30 14:22:28;;;;;;;12.68;5.38;;;;;;;;;;5076125;28;20554;-73
2022/08/30 14:24:54;;;;;;;10.25;4.95;;;;;;;;;;5075652;28;20107;-73
2022/08/30 14:27:21;;;;;;;9.45;4.20;;;;;;;;;;5076042;28;20024;-73
2022/08/30 14:29:47;;;;;;;9.68;4.05;;;;;;;;;;5076029;28;20043;-73
2022/08/30 14:32:14;;;;;;;10.38;5.00;;;;;;;;;;5075487;28;20385;-72
2022/08/30 14:34:40;;;;;;;7.50;3.97;;;;;;;;;;5075896;28;20032;-72
2022/08/30 14:37:06;;;;;;;10.38;4.90;;;;;;;;;;5075846;28;20024;-72
2022/08/30 14:39:32;;;;;;;13.27;5.07;;;;;;;;;;5075478;28;20484;-72
2022/08/30 14:41:58;;;;;;;8.07;4.70;;;;;;;;;;5075719;28;20029;-72
2022/08/30 14:44:25;;;;;;;11.63;4.85;;;;;;;;;;5075786;28;20029;-72
2022/08/30 14:47:43;;;;;;;10.88;6.00;;;;;;;;;;5111029;27;20400;-72
2022/08/30 14:50:09;;;;;;;13.40;6.15;;;;;;;;;;5111173;28;20028;-72
2022/08/30 14:52:35;;;;;;;14.93;5.30;;;;;;;;;;5110497;28;20022;-71
2022/08/30 14:55:02;;;;;;;12.65;5.30;;;;;;;;;;5125967;28;20023;-72
2022/08/30 14:58:00;;;;;;;12.18;6.20;;;;;;;;;;5110782;27;20423;-72
2022/08/30 15:00:27;;;;;;;12.35;6.57;;;;;;;;;;5110777;28;20020;-72
2022/08/30 15:03:16;;;;;;;10.90;5.65;;;;;;;;;;5111515;27;20385;-71
2022/08/30 15:05:48;;;;;;;12.68;5.80;;;;;;;;;;5111106;28;20115;-71
2022/08/30 15:08:14;;;;;;;10.23;5.68;;;;;;;;;;5110900;28;20047;-71
2022/08/30 15:10:40;;;;;;;9.73;5.20;;;;;;;;;;5111341;28;20020;-71
2022/08/30 15:13:06;;;;;;;11.85;5.65;;;;;;;;;;5109770;28;20020;-71
2022/08/30 15:15:32;;;;;;;11.20;5.30;;;;;;;;;;5110584;28;20046;-72
2022/08/30 15:17:58;;;;;;;9.43;5.45;;;;;;;;;;5109673;28;20058;-71
2022/08/30 15:20:26;;;;;;;11.85;6.18;;;;;;;;;;5111098;28;20475;-71
2022/08/30 15:22:52;;;;;;;12.48;6.03;;;;;;;;;;5110441;28;20028;-71
2022/08/30 15:25:19;;;;;;;10.23;5.80;;;;;;;;;;5110809;28;20016;-71
2022/08/30 15:27:45;;;;;;;15.90;6.15;;;;;;;;;;5110525;28;20085;-71
2022/08/30 15:30:11;;;;;;;14.20;6.05;;;;;;;;;;5110846;28;20024;-72
2022/08/30 15:32:37;;;;;;;8.13;5.03;;;;;;;;;;5111099;28;20024;-73
2022/08/30 15:35:04;;;;;;;8.45;5.35;;;;;;;;;;5110495;28;20020;-72
2022/08/30 15:37:30;;;;;;;8.35;5.05;;;;;;;;;;5110570;28;20028;-72
2022/08/30 15:39:56;;;;;;;11.25;5.85;;;;;;;;;;5110567;28;20081;-73
2022/08/30 15:43:59;;;;;;;8.98;5.22;;;;;;;;;;5111163;27;20392;-72
2022/08/30 15:46:28;;;;;;;14.00;6.88;;;;;;;;;;5111156;28;20032;-72
2022/08/30 15:48:55;;;;;;;12.80;6.32;;;;;;;;;;5109538;28;20030;-72
2022/08/30 15:51:22;;;;;;;11.38;6.28;;;;;;;;;;5111370;28;20027;-72
2022/08/30 15:53:48;;;;;;;11.70;5.95;;;;;;;;;;5111070;28;20521;-72
2022/08/30 15:56:15;;;;;;;8.88;5.78;;;;;;;;;;5110555;28;20024;-72
2022/08/30 15:58:42;;;;;;;9.30;5.97;;;;;;;;;;5109688;28;20445;-72
2022/08/30 16:01:08;;;;;;;10.25;5.70;;;;;;;;;;5110802;28;20028;-72
2022/08/30 16:03:35;;;;;;;13.65;5.97;;;;;;;;;;5110510;28;20027;-72
2022/08/30 16:09:51;;;;;;;10.93;6.15;;;;;;;;;;5111433;27;20393;-72
2022/08/30 16:12:17;;;;;;;9.32;6.00;;;;;;;;;;5110829;28;20383;-73
2022/08/30 16:14:43;;;;;;;10.82;6.18;;;;;;;;;;5111099;28;20027;-73
2022/08/30 16:18:17;;;;;;;11.77;6.45;;;;;;;;;;5111149;27;21071;-72
2022/08/30 16:20:43;;;;;;;14.57;6.43;;;;;;;;;;5111227;28;20107;-72
2022/08/30 16:23:10;;;;;;;11.45;6.63;;;;;;;;;;5111571;28;20016;-72
2022/08/30 16:25:36;;;;;;;9.38;5.60;;;;;;;;;;5110683;28;20027;-72
2022/08/30 16:28:03;;;;;;;11.02;6.57;;;;;;;;;;5111120;28;20024;-72
2022/08/30 16:30:29;;;;;;;8.07;5.82;;;;;;;;;;5110901;28;20024;-71
2022/08/30 16:32:55;;;;;;;10.93;6.15;;;;;;;;;;5110591;28;20020;-71
2022/08/30 16:35:22;;;;;;;11.93;6.97;;;;;;;;;;5110861;28;20016;-71
2022/08/30 16:39:04;;;;;;;11.77;7.32;;;;;;;;;;5110778;27;20385;-71
2022/08/30 16:45:21;;;;;;;9.90;6.57;;;;;;;;;;5111174;27;20401;-70
2022/08/30 16:47:47;;;;;;;806.83;509.92;;;;;;;;;;5111104;28;20030;-70
2022/08/30 16:50:15;;;;;;;436.88;260.42;;;;;;;;;;5111044;28;20024;-70
2022/08/30 16:54:10;;;;;;;11.50;5.93;;;;;;;;;;5110911;27;20450;-72